createdAt,value
2022-08-28T00:01:34.154Z,89.72
2022-08-28T00:11:39.148Z,89.70
2022-08-28T00:21:42.052Z,89.69
2022-08-28T00:31:44.377Z,89.54
2022-08-28T00:41:47.053Z,89.66
2022-08-28T00:52:06.000Z,89.58
2022-08-28T01:02:08.288Z,89.69
2022-08-28T01:12:18.743Z,89.87
2022-08-28T01:22:29.299Z,89.61
2022-08-28T01:32:38.707Z,89.67
2022-08-28T01:42:42.769Z,89.19
2022-08-28T01:52:45.243Z,89.42
2022-08-28T02:02:48.631Z,88.92
2022-08-28T02:12:52.659Z,88.88
2022-08-28T02:22:56.097Z,88.92
2022-08-28T02:32:58.350Z,88.95
2022-08-28T02:43:00.639Z,89.23
2022-08-28T02:53:02.831Z,89.33
2022-08-28T03:03:05.523Z,89.73
2022-08-28T03:13:07.828Z,89.76
2022-08-28T03:23:27.942Z,89.66
2022-08-28T03:33:30.206Z,89.72
2022-08-28T03:43:32.479Z,89.79
2022-08-28T03:53:35.187Z,89.65
2022-08-28T04:03:38.984Z,89.59
2022-08-28T04:13:42.227Z,89.22
2022-08-28T04:23:45.923Z,89.34
2022-08-28T04:33:48.119Z,89.25
2022-08-28T04:43:52.860Z,89.01
2022-08-28T04:53:55.203Z,89.08
2022-08-28T05:04:00.421Z,89.04
2022-08-28T05:14:05.651Z,89.36
2022-08-28T05:24:08.558Z,89.27
2022-08-28T05:34:10.958Z,89.27
2022-08-28T05:44:15.632Z,89.38
2022-08-28T05:54:18.105Z,88.98
2022-08-28T06:04:25.876Z,89.03
2022-08-28T06:14:28.518Z,89.43
2022-08-28T06:24:32.000Z,88.97
2022-08-28T06:34:34.439Z,89.11
2022-08-28T06:44:38.713Z,89.06
2022-08-28T06:54:40.915Z,89.63
2022-08-28T07:04:57.621Z,89.34
2022-08-28T07:14:59.902Z,89.86
2022-08-28T07:25:02.257Z,89.88
2022-08-28T07:35:04.835Z,89.34
2022-08-28T07:45:07.630Z,84.20
2022-08-28T07:55:12.697Z,88.24
2022-08-28T08:05:14.996Z,85.03
2022-08-28T08:15:17.341Z,89.12
2022-08-28T08:25:19.498Z,87.15
2022-08-28T08:35:21.664Z,89.51
2022-08-28T08:45:26.768Z,86.75
2022-08-28T08:55:35.955Z,85.41
2022-08-28T09:05:48.026Z,82.29
2022-08-28T09:15:51.208Z,84.69
2022-08-28T09:26:02.851Z,84.45
2022-08-28T09:36:36.516Z,84.34
2022-08-28T09:46:45.053Z,87.28
2022-08-28T09:56:48.860Z,82.82
2022-08-28T10:07:26.507Z,85.77
2022-08-28T10:18:12.856Z,84.34
2022-08-28T10:28:27.428Z,81.44
2022-08-28T10:38:36.132Z,82.39
2022-08-28T10:48:46.554Z,81.84
2022-08-28T10:58:52.019Z,77.99
2022-08-28T11:08:57.688Z,78.63
2022-08-28T11:19:18.236Z,78.74
2022-08-28T11:29:57.435Z,80.08
2022-08-28T11:40:18.594Z,81.46
2022-08-28T11:50:25.540Z,80.93
2022-08-28T12:00:39.740Z,81.80
2022-08-28T12:10:48.079Z,75.69
2022-08-28T12:20:54.350Z,80.84
2022-08-28T12:31:14.364Z,74.41
2022-08-28T12:41:20.656Z,78.43
2022-08-28T12:51:32.289Z,80.18
2022-08-28T13:01:35.562Z,82.64
2022-08-28T13:11:40.546Z,81.31
2022-08-28T13:21:49.180Z,83.83
2022-08-28T13:32:06.867Z,83.32
2022-08-28T13:42:16.057Z,83.37
2022-08-28T13:52:18.218Z,86.34
2022-08-28T14:02:40.434Z,84.71
2022-08-28T14:12:43.339Z,85.46
2022-08-28T14:22:45.635Z,84.61
2022-08-28T14:32:47.778Z,86.17
2022-08-28T14:42:51.090Z,87.05
2022-08-28T14:52:53.247Z,87.35
2022-08-28T15:02:59.912Z,87.53
2022-08-28T15:13:02.307Z,87.00
2022-08-28T15:23:04.507Z,87.07
2022-08-28T15:33:06.739Z,87.76
2022-08-28T15:43:09.061Z,87.28
2022-08-28T15:53:11.371Z,87.61
2022-08-28T16:03:13.663Z,88.44
2022-08-28T16:13:18.015Z,87.95
2022-08-28T16:23:20.159Z,87.64
2022-08-28T16:33:22.811Z,87.53
2022-08-28T16:43:25.001Z,87.75
2022-08-28T16:53:27.308Z,88.04
2022-08-28T17:03:31.308Z,87.71
2022-08-28T17:13:34.494Z,88.20
2022-08-28T17:23:36.966Z,86.92
2022-08-28T17:33:40.837Z,86.76
2022-08-28T17:43:43.026Z,87.71
2022-08-28T17:53:45.461Z,87.26
2022-08-28T18:03:53.515Z,87.20
2022-08-28T18:13:56.011Z,87.62
2022-08-28T18:23:58.204Z,88.53
2022-08-28T18:34:00.569Z,89.29
2022-08-28T18:44:21.195Z,89.58
2022-08-28T18:54:25.954Z,88.80
2022-08-28T19:04:30.123Z,89.17
2022-08-28T19:14:33.690Z,89.77
2022-08-28T19:24:35.912Z,89.47
2022-08-28T19:34:38.082Z,89.51
2022-08-28T19:44:40.289Z,89.75
2022-08-28T19:54:42.678Z,89.96
2022-08-28T20:04:44.899Z,89.89
2022-08-28T20:14:47.560Z,89.95
2022-08-28T20:24:49.914Z,90.02
2022-08-28T20:40:10.187Z,90.14
2022-08-28T20:50:14.014Z,89.87
2022-08-28T21:00:16.243Z,89.53
2022-08-28T21:10:18.500Z,89.48
2022-08-28T21:20:21.984Z,89.38
2022-08-28T21:30:29.532Z,88.91
2022-08-28T21:40:32.367Z,88.47
2022-08-28T21:50:34.537Z,88.62
2022-08-28T22:00:36.910Z,88.60
2022-08-28T22:10:40.891Z,88.84
2022-08-28T22:21:03.265Z,88.60
2022-08-28T22:31:05.577Z,88.96
2022-08-28T22:41:09.009Z,88.96
2022-08-28T22:51:15.592Z,88.47
2022-08-28T23:01:20.991Z,88.38
2022-08-28T23:11:23.684Z,88.63
2022-08-28T23:21:28.493Z,88.64
2022-08-28T23:31:31.014Z,88.72
2022-08-28T23:41:34.081Z,88.76
2022-08-28T23:51:36.243Z,88.50
